LFRTLFJR

Guest
Details From LFRT - Saint Brieuc Armor
To LFJR - Angers Marce
Flight Number -
Tags generated
Created
Modified
Stats Distance 118 nm / 218 km
Max Altitude 13,900 ft / 4,237 m
Waypoints 3
Social Downloads 0
Likes 0
Share VATSIM

Download

Looking for another format? Having issues loading an existing format? Contact us
Advertisement - Login to hide

Notes

Basic altitude profile: - Ascent Rate: 2500ft/min - Ascent Speed: 80kts - Cruise Altitude: 35000ft - Cruise Speed: 120kts - Descent Rate: 1500ft/min - Descent Speed: 250kts Options: - Use NATs: yes - Use PACOTS: yes - Use low airways: yes - Use high airways: yes

Route

LFRT REN LFJR

ID Type Via Altitude Latitude Longitude Leg Dist Tot Dist Heading (true) Name
O LFRT APT - 0 ft / 0 m 48.53826˚ -2.85461˚ - 0 nm - Saint Brieuc Armor
REN VOR - 13,900 ft / 4,237 m 48.06925˚ -1.74167˚ 52 nm 52 nm 122° / 123° RENNES SAINT JACQUES VOR-DME
O LFJR APT - 0 ft / 0 m 47.55982˚ -0.31221˚ 65 nm 117 nm 117° / 118° Angers Marce

Altitude Profile

Advertisement - Login to hide

LFRT

Details ICAO LFRT (SBK)
Name Saint Brieuc Armor
Region France
Timezone Europe/Paris (UTC+1.0)
Stats Elevation 452 ft / 138 m (AMSL)
Location 48.538265° -2.854612°
Runways 1
Magnetic Variation 1.053° W

METAR

LFRT 130700Z AUTO 27013KT 9999 FEW046 OVC090 08/06 Q1008

Decode

TAF

Not found

Departure Runways

ID Width Length Bearing (true) Bearing (mag) Surface Threshold Offset Overrun Length
06 148 ft / 45 m 7,214 ft / 2,199 m 58.77° 59.82° Asphalt 0 ft / 0 m 0 ft / 0 m
24 148 ft / 45 m 7,214 ft / 2,199 m 238.79° 239.84° Asphalt 0 ft / 0 m 0 ft / 0 m

LFJR

Details ICAO LFJR (ANE)
Name Angers Marce
Region France
Timezone Europe/Paris (UTC+1.0)
Stats Elevation 194 ft / 59 m (AMSL)
Location 47.559822° -0.312207°
Runways 3
Magnetic Variation 0.137° W

METAR

LFJR 130700Z AUTO 21012KT 9999 -RA OVC007 08/08 Q1009 TEMPO 4000 RA BECMG SCT014 BKN035

Decode

TAF

Not found

Destination Runways

ID Width Length Bearing (true) Bearing (mag) Surface Threshold Offset Overrun Length
08 135 ft / 41 m 5,405 ft / 1,647 m 80.99° 81.13° Asphalt 120 ft / 37 m 0 ft / 0 m
08L 135 ft / 41 m 2,131 ft / 650 m 81.00° 81.14° Grass 0 ft / 0 m 0 ft / 0 m
08R 300 ft / 91 m 3,303 ft / 1,007 m 81.00° 81.14° Grass 0 ft / 0 m 0 ft / 0 m
26 135 ft / 41 m 5,405 ft / 1,647 m 261.01° 261.15° Asphalt 250 ft / 76 m 0 ft / 0 m
26L 300 ft / 91 m 3,303 ft / 1,007 m 261.00° 261.14° Grass 0 ft / 0 m 0 ft / 0 m
26R 135 ft / 41 m 2,131 ft / 650 m 261.00° 261.14° Grass 0 ft / 0 m 0 ft / 0 m

Approach Navaids

Runway Type Ident Frequency Range Bearing (true) Bearing (mag) Slope Elevation
26 Localiser AS 108.90 MHz 18 nm / 33 km 261.07° 261.21° - 194 ft / 59 m (AMSL)

Popular Alternatives